Flight Track Log - Related Links

Times and Time Zones

All times are in EDT time to prevent confusion due to time zone crossing. See the N450S flight status page for this flight to view local times or setup timezone preferences in your user account.

Time Position Orientation Groundspeed Altitude Reporting Facility
EDT Latitude Longitude Course Direction KTS MPH feet Rate Location/Type
Wed 05:32:57 PM 43.0167 -81.1333 360° North 10 12 900  Level Toronto Center
Wed 05:33:57 PM 43.0167 -81.1333 360° North 10 12 800  Descending Toronto Center
Wed 05:34:57 PM 43.0167 -81.1333 144° Southeast 20 23 900 33 Climbing Toronto Center
Wed 05:36:57 PM 43.0000 -81.1167 144° Southeast 10 12 900  Level Toronto Center
Wed 05:37:57 PM 43.0167 -81.1333 324° Northwest 20 23 900 600 Level Toronto Center
Wed 05:38:57 PM 43.0333 -81.1667 304° West 140 161 2,100 1,750 Climbing Toronto Center
Wed 05:39:57 PM 43.0500 -81.2000 304° West 140 161 4,400 2,050 Climbing Toronto Center
Wed 05:40:57 PM 43.0000 -81.2500 216° Southwest 180 207 6,200 2,000 Climbing Toronto Center
Wed 05:41:57 PM 42.9667 -81.2667 200° South 180 207 8,400 1,900 Climbing Toronto Center
Wed 05:42:57 PM 42.9333 -81.3167 228° Southwest 160 184 10,000 800 Climbing Toronto Center
Wed 05:43:57 PM 42.8833 -81.3667 216° Southwest 180 207 10,000  Level Toronto Center
Wed 05:44:38 PM 42.8678 -81.3961 234° Southwest 199 229 10,000 713 Level Cleveland Center
Wed 05:45:38 PM 42.8239 -81.4381 215° Southwest 205 236 11,200 950 Climbing Cleveland Center
Wed 05:46:38 PM 42.7797 -81.4769 213° Southwest 186 214 11,900 400 Climbing Cleveland Center
Wed 05:47:38 PM 42.7358 -81.5131 211° Southwest 186 214 12,000 150 Climbing Cleveland Center
Wed 05:48:38 PM 42.6917 -81.5550 215° Southwest 193 222 12,200 100 Climbing Cleveland Center
Wed 05:49:38 PM 42.6453 -81.5964 213° Southwest 193 222 12,200  Level Cleveland Center
Wed 05:50:38 PM 42.5992 -81.6353 212° Southwest 193 222 12,200  Level Cleveland Center
Wed 05:51:38 PM 42.5528 -81.6794 215° Southwest 193 222 12,200  Level Cleveland Center
Wed 05:52:38 PM 42.5047 -81.7181 211° Southwest 193 222 12,200 50 Level Cleveland Center
Wed 05:53:38 PM 42.4583 -81.7594 213° Southwest 193 222 12,300  Climbing Cleveland Center
Wed 05:54:38 PM 42.4100 -81.8064 216° Southwest 206 237 12,200 -50 Descending Cleveland Center
Wed 05:55:38 PM 42.3617 -81.8475 212° Southwest 206 237 12,200 -50 Level Cleveland Center
Wed 05:56:38 PM 42.3172 -81.8861 213° Southwest 211 243 12,100 -50 Descending Cleveland Center
Wed 05:57:38 PM 42.2669 -81.9272 211° Southwest 217 250 12,100 -200 Level Cleveland Center
Wed 05:58:38 PM 42.2183 -81.9708 214° Southwest 217 250 11,700 -550 Descending Cleveland Center
Wed 05:59:38 PM 42.1656 -82.0203 215° Southwest 223 257 11,000 -750 Descending Cleveland Center
Wed 06:00:38 PM 42.1108 -82.0639 211° Southwest 229 264 10,200 -818 Descending Cleveland Center
Wed 06:01:06 PM 42.0814 -82.0967 220° Southwest 233 268 9,800 -831 Descending Cleveland Center
Wed 06:01:43 PM 42.0475 -82.1239 211° Southwest 234 269 9,300 -848 Descending Cleveland Center
Wed 06:02:38 PM 42.0053 -82.1619 214° Southwest 234 269 8,500 -835 Descending Cleveland Center
Wed 06:03:38 PM 41.9444 -82.1994 205° Southwest 239 275 7,700 -803 Descending Cleveland Center
Wed 06:04:45 PM 41.8586 -82.2169 189° South 253 291 6,800 -800 Descending Cleveland Center
Wed 06:05:38 PM 41.8083 -82.2294 190° South 251 289 6,100 -743 Descending Cleveland Center
Wed 06:06:38 PM 41.7372 -82.2472 191° South 257 296 5,400 -800 Descending Cleveland Center
Wed 06:07:38 PM 41.6703 -82.2622 190° South 257 296 4,500 -850 Descending Cleveland Center
Wed 06:08:38 PM 41.6011 -82.2964 200° South 248 285 3,700 -750 Descending Cleveland Center
Wed 06:09:38 PM 41.5525 -82.3478 218° Southwest 234 269 3,000 -350 Descending Cleveland Center
Wed 06:10:38 PM 41.5058 -82.3964 218° Southwest 222 255 3,000  Level Cleveland Center
Wed 06:11:51 PM 41.4528 -82.4558 220° Southwest 204 235 3,000 -45 Level Cleveland Center
Wed 06:12:52 PM 41.4308 -82.5136 243° Southwest 169 194 2,900 -414 Descending Cleveland Center
Wed 06:13:47 PM 41.4322 -82.5550 273° West 129 148 2,200 -764 Descending Cleveland Center
Wed 06:15:00 PM 41.4333 -82.6500 234° Southwest  Level FlightAware Approximate
Wed 06:22:00 PM 41.4334 -82.6523 234° Southwest  Level Estimated
Wed 06:23:00 PM 41.4333 -82.6500 234° Southwest  Level FlightAware Approximate
Wed 06:24:00 PM 41.4334 -82.6523 234° Southwest  Level Estimated

Login

Don't have an account? Register now (free) for customized features, flight alerts, and more!